createdAt,value
2023-05-21T00:01:07.135Z,49.42
2023-05-21T00:03:33.972Z,49.57
2023-05-21T00:06:01.541Z,49.83
2023-05-21T00:08:28.468Z,49.80
2023-05-21T00:10:55.037Z,50.12
2023-05-21T00:13:21.867Z,50.29
2023-05-21T00:15:48.467Z,50.64
2023-05-21T00:18:15.203Z,50.81
2023-05-21T00:20:41.777Z,50.79
2023-05-21T00:23:08.237Z,51.05
2023-05-21T00:25:34.948Z,51.34
2023-05-21T00:28:01.553Z,51.50
2023-05-21T00:30:30.349Z,51.45
2023-05-21T00:32:58.782Z,51.61
2023-05-21T00:35:25.531Z,52.01
2023-05-21T00:37:52.051Z,52.11
2023-05-21T00:40:18.822Z,52.18
2023-05-21T00:42:48.031Z,52.13
2023-05-21T00:45:17.593Z,52.42
2023-05-21T00:47:47.642Z,52.70
2023-05-21T00:50:15.767Z,52.75
2023-05-21T00:52:45.441Z,52.79
2023-05-21T00:55:12.151Z,52.75
2023-05-21T00:57:39.772Z,52.95
2023-05-21T01:00:10.708Z,53.06
2023-05-21T01:02:38.131Z,53.08
2023-05-21T01:05:08.263Z,53.18
2023-05-21T01:07:36.709Z,53.33
2023-05-21T01:10:08.565Z,53.27
2023-05-21T01:12:43.782Z,53.50
2023-05-21T01:15:10.908Z,53.57
2023-05-21T01:17:39.108Z,53.80
2023-05-21T01:20:12.584Z,53.77
2023-05-21T01:22:43.973Z,54.23
2023-05-21T01:25:10.901Z,54.27
2023-05-21T01:27:37.404Z,54.12
2023-05-21T01:30:04.760Z,54.46
2023-05-21T01:32:52.441Z,54.48
2023-05-21T01:35:25.016Z,54.66
2023-05-21T01:38:31.333Z,54.50
2023-05-21T01:41:03.916Z,54.81
2023-05-21T01:43:36.777Z,54.67
2023-05-21T01:46:05.534Z,54.84
2023-05-21T01:48:32.366Z,54.92
2023-05-21T01:51:03.593Z,55.01
2023-05-21T01:53:30.211Z,55.06
2023-05-21T01:55:56.765Z,54.98
2023-05-21T01:58:26.594Z,54.86
2023-05-21T02:00:53.059Z,54.95
2023-05-21T02:03:20.702Z,55.01
2023-05-21T02:05:49.428Z,55.08
2023-05-21T02:08:15.875Z,54.97
2023-05-21T02:10:42.325Z,55.23
2023-05-21T02:13:08.826Z,55.07
2023-05-21T02:15:35.592Z,54.86
2023-05-21T02:18:03.571Z,54.86
2023-05-21T02:20:31.473Z,54.87
2023-05-21T02:22:58.001Z,55.07
2023-05-21T02:25:24.511Z,54.93
2023-05-21T02:27:54.152Z,54.88
2023-05-21T02:30:21.053Z,55.18
2023-05-21T02:32:49.886Z,55.06
2023-05-21T02:35:16.794Z,55.39
2023-05-21T02:37:44.788Z,55.23
2023-05-21T02:40:12.426Z,55.39
2023-05-21T02:42:40.450Z,55.54
2023-05-21T02:45:11.470Z,55.67
2023-05-21T02:47:38.678Z,55.59
2023-05-21T02:50:07.687Z,55.62
2023-05-21T02:52:34.281Z,55.76
2023-05-21T02:55:01.116Z,56.00
2023-05-21T02:57:27.611Z,56.31
2023-05-21T02:59:54.032Z,56.25
2023-05-21T03:02:23.134Z,56.52
2023-05-21T03:04:51.467Z,56.51
2023-05-21T03:07:19.287Z,56.86
2023-05-21T03:09:46.506Z,56.83
2023-05-21T03:12:13.605Z,56.96
2023-05-21T03:14:40.046Z,57.06
2023-05-21T03:17:07.655Z,57.32
2023-05-21T03:19:35.829Z,57.48
2023-05-21T03:22:03.682Z,57.37
2023-05-21T03:24:30.633Z,57.48
2023-05-21T03:26:59.821Z,57.57
2023-05-21T03:29:26.321Z,57.99
2023-05-21T03:31:54.899Z,57.83
2023-05-21T03:34:21.711Z,57.98
2023-05-21T03:36:48.255Z,57.97
2023-05-21T03:39:15.522Z,58.14
2023-05-21T03:41:42.759Z,58.28
2023-05-21T03:44:09.449Z,58.67
2023-05-21T03:46:36.180Z,58.70
2023-05-21T03:49:02.793Z,58.80
2023-05-21T03:51:30.489Z,58.92
2023-05-21T03:54:00.216Z,59.26
2023-05-21T03:56:26.896Z,59.46
2023-05-21T03:58:53.547Z,59.43
2023-05-21T04:01:20.085Z,59.52
2023-05-21T04:03:46.930Z,59.75
2023-05-21T04:06:13.649Z,59.94
2023-05-21T04:08:40.113Z,59.92
2023-05-21T04:11:06.676Z,60.24
2023-05-21T04:13:33.136Z,60.23
2023-05-21T04:15:59.818Z,60.39
2023-05-21T04:18:26.844Z,60.29
2023-05-21T04:20:53.827Z,60.64
2023-05-21T04:23:20.356Z,60.74
2023-05-21T04:25:50.837Z,60.74
2023-05-21T04:28:20.498Z,60.87
2023-05-21T04:30:50.293Z,61.14
2023-05-21T04:33:18.241Z,61.29
2023-05-21T04:35:47.388Z,61.21
2023-05-21T04:38:14.202Z,61.56
2023-05-21T04:40:40.894Z,61.71
2023-05-21T04:43:08.161Z,61.96
2023-05-21T04:45:34.988Z,62.36
2023-05-21T04:48:02.799Z,62.34
2023-05-21T04:50:32.167Z,62.43
2023-05-21T04:52:59.540Z,62.74
2023-05-21T04:55:27.479Z,62.75
2023-05-21T04:57:54.004Z,63.07
2023-05-21T05:00:23.348Z,63.18
2023-05-21T05:02:49.823Z,63.27
2023-05-21T05:05:16.697Z,63.31
2023-05-21T05:07:43.546Z,63.36
2023-05-21T05:10:12.747Z,63.41
2023-05-21T05:12:39.232Z,63.78
2023-05-21T05:15:06.210Z,63.77
2023-05-21T05:17:32.688Z,63.71
2023-05-21T05:19:59.141Z,63.78
2023-05-21T05:22:25.599Z,63.87
2023-05-21T05:24:52.228Z,64.34
2023-05-21T05:27:18.722Z,64.41
2023-05-21T05:29:48.139Z,64.42
2023-05-21T05:32:14.831Z,64.67
2023-05-21T05:34:42.607Z,64.76
2023-05-21T05:37:09.501Z,64.81
2023-05-21T05:39:36.045Z,64.73
2023-05-21T05:42:03.419Z,64.86
2023-05-21T05:44:29.875Z,64.81
2023-05-21T05:46:56.382Z,65.09
2023-05-21T05:49:22.940Z,65.17
2023-05-21T05:51:51.716Z,64.75
2023-05-21T05:54:21.754Z,65.39
2023-05-21T05:56:48.201Z,65.70
2023-05-21T05:59:14.671Z,65.57
2023-05-21T06:01:42.419Z,65.28
2023-05-21T06:04:08.856Z,65.21
2023-05-21T06:06:36.713Z,65.40
2023-05-21T06:09:03.208Z,65.40
2023-05-21T06:11:29.732Z,65.25
2023-05-21T06:13:56.838Z,65.15
2023-05-21T06:16:23.494Z,65.08
2023-05-21T06:18:50.120Z,65.23
2023-05-21T06:21:16.846Z,64.91
2023-05-21T06:23:43.372Z,65.32
2023-05-21T06:26:09.903Z,65.13
2023-05-21T06:28:36.918Z,65.22
2023-05-21T06:31:03.397Z,64.95
2023-05-21T06:33:29.920Z,64.64
2023-05-21T06:35:56.394Z,64.64
2023-05-21T06:38:22.796Z,64.42
2023-05-21T06:40:49.584Z,64.30
2023-05-21T06:43:16.082Z,64.27
2023-05-21T06:45:44.892Z,64.28
2023-05-21T06:48:12.529Z,63.83
2023-05-21T06:50:40.664Z,63.75
2023-05-21T06:53:07.222Z,63.73
2023-05-21T06:55:37.308Z,63.38
2023-05-21T06:58:03.972Z,62.87
2023-05-21T07:00:30.518Z,62.08
2023-05-21T07:02:57.154Z,61.72
2023-05-21T07:05:23.638Z,60.99
2023-05-21T07:07:50.071Z,61.04
2023-05-21T07:10:16.584Z,60.70
2023-05-21T07:12:43.039Z,59.89
2023-05-21T07:15:09.989Z,59.02
2023-05-21T07:17:37.489Z,58.08
2023-05-21T07:20:07.863Z,57.91
2023-05-21T07:22:37.216Z,57.59
2023-05-21T07:25:06.666Z,57.12
2023-05-21T07:27:33.125Z,56.19
2023-05-21T07:29:59.586Z,54.82
2023-05-21T07:32:28.865Z,54.56
2023-05-21T07:34:55.910Z,54.02
2023-05-21T07:37:22.480Z,53.07
2023-05-21T07:39:48.960Z,53.30
2023-05-21T07:42:15.450Z,52.89
2023-05-21T07:44:41.923Z,52.73
2023-05-21T07:47:08.388Z,52.74
2023-05-21T07:49:34.904Z,52.85
2023-05-21T07:52:02.101Z,53.08
2023-05-21T07:54:28.615Z,53.62
2023-05-21T07:56:55.066Z,53.30
2023-05-21T07:59:21.631Z,53.08
2023-05-21T08:01:48.189Z,53.47
2023-05-21T08:04:14.855Z,53.14
2023-05-21T08:06:44.053Z,52.82
2023-05-21T08:09:10.647Z,52.07
2023-05-21T08:11:37.158Z,52.38
2023-05-21T08:14:04.076Z,52.62
2023-05-21T08:16:30.727Z,52.39
2023-05-21T08:18:57.324Z,51.34
2023-05-21T08:21:23.890Z,50.78
2023-05-21T08:23:52.693Z,50.91
2023-05-21T08:26:19.242Z,50.98
2023-05-21T08:28:45.715Z,50.90
2023-05-21T08:31:13.810Z,50.31
2023-05-21T08:33:40.466Z,50.00
2023-05-21T08:36:07.722Z,49.95
2023-05-21T08:38:35.013Z,49.97
2023-05-21T08:41:01.457Z,48.96
2023-05-21T08:43:28.923Z,48.34
2023-05-21T08:45:57.439Z,48.55
2023-05-21T08:48:24.487Z,47.70
2023-05-21T08:50:53.091Z,47.74
2023-05-21T08:53:28.137Z,47.74
2023-05-21T08:55:56.334Z,47.81
2023-05-21T08:58:23.172Z,47.91
2023-05-21T09:00:49.744Z,47.68
2023-05-21T09:03:16.873Z,47.25
2023-05-21T09:05:45.694Z,47.20
2023-05-21T09:08:15.151Z,46.80
2023-05-21T09:10:48.468Z,46.64
2023-05-21T09:13:17.335Z,46.02
2023-05-21T09:15:48.372Z,46.27
2023-05-21T09:18:15.221Z,46.72
2023-05-21T09:20:42.338Z,46.46
2023-05-21T09:23:16.684Z,47.09
2023-05-21T09:25:47.910Z,47.31
2023-05-21T09:28:15.780Z,47.19
2023-05-21T09:30:46.092Z,46.93
2023-05-21T09:33:18.058Z,45.86
2023-05-21T09:35:46.517Z,46.51
2023-05-21T09:38:13.143Z,46.05
2023-05-21T09:40:44.125Z,45.88
2023-05-21T09:43:14.466Z,45.59
2023-05-21T09:45:51.317Z,44.74
2023-05-21T09:48:18.192Z,44.65
2023-05-21T09:50:44.724Z,44.84
2023-05-21T09:53:14.564Z,44.76
2023-05-21T09:55:41.778Z,44.79
2023-05-21T09:58:08.454Z,44.69
2023-05-21T10:00:35.184Z,43.31
2023-05-21T10:03:03.152Z,43.23
2023-05-21T10:05:30.678Z,43.77
2023-05-21T10:08:02.308Z,43.35
2023-05-21T10:10:30.353Z,43.22
2023-05-21T10:13:02.967Z,43.47
2023-05-21T10:15:35.167Z,43.08
2023-05-21T10:18:02.998Z,43.51
2023-05-21T10:20:29.825Z,43.18
2023-05-21T10:22:57.620Z,43.46
2023-05-21T10:25:26.195Z,43.50
2023-05-21T10:27:56.118Z,43.39
2023-05-21T10:30:23.761Z,43.44
2023-05-21T10:32:50.603Z,42.86
2023-05-21T10:35:20.339Z,43.01
2023-05-21T10:37:46.947Z,42.66
2023-05-21T10:40:13.703Z,43.04
2023-05-21T10:43:11.154Z,42.64
2023-05-21T10:46:03.832Z,42.62
2023-05-21T10:49:05.069Z,41.08
2023-05-21T10:51:50.476Z,40.95
2023-05-21T10:54:50.776Z,41.20
2023-05-21T10:57:54.937Z,41.08
2023-05-21T11:00:21.925Z,39.99
2023-05-21T11:02:52.124Z,40.41
2023-05-21T11:05:41.689Z,39.99
2023-05-21T11:08:24.915Z,40.06
2023-05-21T11:10:57.805Z,39.60
2023-05-21T11:13:28.624Z,39.85
2023-05-21T11:15:58.051Z,38.99
2023-05-21T11:18:44.440Z,38.77
2023-05-21T11:21:14.002Z,39.20
2023-05-21T11:23:53.250Z,39.30
2023-05-21T11:26:27.278Z,38.93
2023-05-21T11:29:06.996Z,38.04
2023-05-21T11:31:38.226Z,38.43
2023-05-21T11:34:17.264Z,38.13
2023-05-21T11:36:48.205Z,37.03
2023-05-21T11:39:17.870Z,38.19
2023-05-21T11:42:04.457Z,38.04
2023-05-21T11:44:46.728Z,38.07
2023-05-21T11:47:21.663Z,37.52
2023-05-21T11:49:49.449Z,38.10
2023-05-21T11:52:16.024Z,37.86
2023-05-21T11:54:48.599Z,37.83
2023-05-21T11:57:19.205Z,37.50
2023-05-21T11:59:46.524Z,37.42
2023-05-21T12:02:17.411Z,36.81
2023-05-21T12:04:46.153Z,36.93
2023-05-21T12:07:13.990Z,36.90
2023-05-21T12:09:44.874Z,37.03
2023-05-21T12:12:14.565Z,37.82
2023-05-21T12:14:45.890Z,37.69
2023-05-21T12:17:15.565Z,37.21
2023-05-21T12:19:42.677Z,37.30
2023-05-21T12:22:10.131Z,37.71
2023-05-21T12:24:37.690Z,38.48
2023-05-21T12:27:10.231Z,38.01
2023-05-21T12:29:39.502Z,38.60
2023-05-21T12:32:09.100Z,39.12
2023-05-21T12:34:54.389Z,38.79
2023-05-21T12:37:22.649Z,38.83
2023-05-21T12:39:51.014Z,38.87
2023-05-21T12:42:26.148Z,39.21
2023-05-21T12:44:53.295Z,39.01
2023-05-21T12:47:23.817Z,39.15
2023-05-21T12:49:53.089Z,39.99
2023-05-21T12:52:21.378Z,40.20
2023-05-21T12:54:52.112Z,40.64
2023-05-21T12:57:21.289Z,40.74
2023-05-21T12:59:51.677Z,40.57
2023-05-21T13:02:24.090Z,40.59
2023-05-21T13:05:01.911Z,40.60
2023-05-21T13:07:31.574Z,40.87
2023-05-21T13:09:58.837Z,40.90
2023-05-21T13:12:27.302Z,40.74
2023-05-21T13:14:56.523Z,40.74
2023-05-21T13:17:24.189Z,40.80
2023-05-21T13:20:10.240Z,40.80
2023-05-21T13:22:43.746Z,40.61
2023-05-21T13:25:14.458Z,40.87
2023-05-21T13:27:41.849Z,40.42
2023-05-21T13:30:09.489Z,40.03
2023-05-21T13:32:36.656Z,39.97
2023-05-21T13:35:03.600Z,40.16
2023-05-21T13:37:30.835Z,40.17
2023-05-21T13:39:57.684Z,40.80
2023-05-21T13:42:24.181Z,41.40
2023-05-21T13:44:50.798Z,40.87
2023-05-21T13:47:17.360Z,40.84
2023-05-21T13:49:43.876Z,41.92
2023-05-21T13:52:10.452Z,42.00
2023-05-21T13:54:37.038Z,42.55
2023-05-21T13:57:04.215Z,42.17
2023-05-21T13:59:33.221Z,42.21
2023-05-21T14:02:00.409Z,42.48
2023-05-21T14:04:27.245Z,42.89
2023-05-21T14:06:53.908Z,43.32
2023-05-21T14:09:20.841Z,42.88
2023-05-21T14:11:47.348Z,43.33
2023-05-21T14:14:18.829Z,43.52
2023-05-21T14:16:49.475Z,43.52
2023-05-21T14:19:16.452Z,44.09
2023-05-21T14:21:43.519Z,44.61
2023-05-21T14:24:11.281Z,45.06
2023-05-21T14:26:40.780Z,44.62
2023-05-21T14:29:07.553Z,44.60
2023-05-21T14:31:34.478Z,44.97
2023-05-21T14:34:02.738Z,45.22
2023-05-21T14:36:29.584Z,45.53
2023-05-21T14:38:56.194Z,45.78
2023-05-21T14:41:29.416Z,45.36
2023-05-21T14:43:56.014Z,45.43
2023-05-21T14:46:22.712Z,45.36
2023-05-21T14:48:49.427Z,45.21
2023-05-21T14:51:15.968Z,45.03
2023-05-21T14:53:43.756Z,45.31
2023-05-21T14:56:10.249Z,45.67
2023-05-21T14:58:36.699Z,45.78
2023-05-21T15:01:04.270Z,45.76
2023-05-21T15:03:32.866Z,45.69
2023-05-21T15:05:59.538Z,45.83
2023-05-21T15:08:26.218Z,46.21
2023-05-21T15:10:52.702Z,45.86
2023-05-21T15:13:19.304Z,45.94
2023-05-21T15:15:46.115Z,46.40
2023-05-21T15:18:12.716Z,46.68
2023-05-21T15:20:40.273Z,46.68
2023-05-21T15:23:16.957Z,46.87
2023-05-21T15:25:47.061Z,46.64
2023-05-21T15:28:13.592Z,46.74
2023-05-21T15:30:40.712Z,46.89
2023-05-21T15:33:07.379Z,46.94
2023-05-21T15:35:36.304Z,46.31
2023-05-21T15:38:03.165Z,47.15
2023-05-21T15:40:29.736Z,47.39
2023-05-21T15:42:57.057Z,46.95
2023-05-21T15:45:24.734Z,47.51
2023-05-21T15:47:51.604Z,47.54
2023-05-21T15:50:18.224Z,48.54
2023-05-21T15:52:44.636Z,48.24
2023-05-21T15:55:11.229Z,48.48
2023-05-21T15:57:37.685Z,48.84
2023-05-21T16:00:06.203Z,48.99
2023-05-21T16:02:35.070Z,48.67
2023-05-21T16:05:08.053Z,48.99
2023-05-21T16:07:36.262Z,49.22
2023-05-21T16:10:05.519Z,48.68
2023-05-21T16:12:34.994Z,48.84
2023-05-21T16:15:01.422Z,49.19
2023-05-21T16:17:27.874Z,49.00
2023-05-21T16:19:54.393Z,49.24
2023-05-21T16:22:20.893Z,49.67
2023-05-21T16:24:48.190Z,49.63
2023-05-21T16:27:15.159Z,50.29
2023-05-21T16:29:42.001Z,50.72
2023-05-21T16:32:09.735Z,50.82
2023-05-21T16:34:36.375Z,50.90
2023-05-21T16:37:03.979Z,50.98
2023-05-21T16:39:32.317Z,50.93
2023-05-21T16:41:59.822Z,51.11
2023-05-21T16:44:26.862Z,50.84
2023-05-21T16:46:53.681Z,51.17
2023-05-21T16:49:20.180Z,51.32
2023-05-21T16:51:49.667Z,51.25
2023-05-21T16:54:16.320Z,51.81
2023-05-21T16:56:44.304Z,52.43
2023-05-21T16:59:10.766Z,52.35
2023-05-21T17:01:37.332Z,52.31
2023-05-21T17:04:04.200Z,52.29
2023-05-21T17:06:31.674Z,52.26
2023-05-21T17:08:58.330Z,52.52
2023-05-21T17:11:25.102Z,53.04
2023-05-21T17:13:51.653Z,53.02
2023-05-21T17:16:18.145Z,53.32
2023-05-21T17:18:44.924Z,54.01
2023-05-21T17:21:11.811Z,54.17
2023-05-21T17:23:38.482Z,54.24
2023-05-21T17:26:07.041Z,54.66
2023-05-21T17:28:33.645Z,54.77
2023-05-21T17:31:01.279Z,55.10
2023-05-21T17:33:28.194Z,55.26
2023-05-21T17:35:56.963Z,55.11
2023-05-21T17:38:23.606Z,55.26
2023-05-21T17:40:50.648Z,55.47
2023-05-21T17:43:17.692Z,55.67
2023-05-21T17:45:44.154Z,55.72
2023-05-21T17:48:12.082Z,56.19
2023-05-21T17:50:38.714Z,56.27
2023-05-21T17:53:05.485Z,56.38
2023-05-21T17:55:31.987Z,56.41
2023-05-21T17:57:58.939Z,56.43
2023-05-21T18:00:25.342Z,56.45
2023-05-21T18:02:51.942Z,56.52
2023-05-21T18:05:18.702Z,56.54
2023-05-21T18:07:45.265Z,56.81
2023-05-21T18:10:11.781Z,57.08
2023-05-21T18:12:39.376Z,56.79
2023-05-21T18:15:06.349Z,57.38
2023-05-21T18:17:34.067Z,57.62
2023-05-21T18:20:00.528Z,57.34
2023-05-21T18:22:26.914Z,57.43
2023-05-21T18:24:53.403Z,57.87
2023-05-21T18:27:24.411Z,57.85
2023-05-21T18:29:51.069Z,58.05
2023-05-21T18:32:17.703Z,58.42
2023-05-21T18:34:44.329Z,59.02
2023-05-21T18:37:11.142Z,59.61
2023-05-21T18:39:37.742Z,59.81
2023-05-21T18:42:12.773Z,60.09
2023-05-21T18:44:39.645Z,60.29
2023-05-21T18:47:09.124Z,60.28
2023-05-21T18:49:36.212Z,60.19
2023-05-21T18:52:03.958Z,60.78
2023-05-21T18:54:30.483Z,60.85
2023-05-21T18:56:59.611Z,61.38
2023-05-21T18:59:29.155Z,61.62
2023-05-21T19:01:55.692Z,61.74
2023-05-21T19:04:22.419Z,62.27
2023-05-21T19:06:48.928Z,62.50
2023-05-21T19:09:17.016Z,63.18
2023-05-21T19:11:46.549Z,63.34
2023-05-21T19:14:13.166Z,63.78
2023-05-21T19:16:39.723Z,64.25
2023-05-21T19:19:06.514Z,64.44
2023-05-21T19:21:33.292Z,64.98
2023-05-21T19:23:59.763Z,65.76
2023-05-21T19:26:26.205Z,66.13
2023-05-21T19:28:54.297Z,65.98
2023-05-21T19:31:22.249Z,66.98
2023-05-21T19:33:49.136Z,67.52
2023-05-21T19:36:17.319Z,67.26
2023-05-21T19:38:50.948Z,67.84
2023-05-21T19:41:19.281Z,68.16
2023-05-21T19:43:46.309Z,68.17
2023-05-21T19:46:13.551Z,68.48
2023-05-21T19:48:40.806Z,68.23
2023-05-21T19:51:07.285Z,68.66
2023-05-21T19:53:34.745Z,68.79
2023-05-21T19:56:01.369Z,69.42
2023-05-21T19:58:29.496Z,69.40
2023-05-21T20:00:58.448Z,69.49
2023-05-21T20:03:26.331Z,69.67
2023-05-21T20:05:53.047Z,69.94
2023-05-21T20:08:19.527Z,69.92
2023-05-21T20:10:46.796Z,70.15
2023-05-21T20:13:14.470Z,70.59
2023-05-21T20:15:40.992Z,70.92
2023-05-21T20:18:07.592Z,70.97
2023-05-21T20:20:37.234Z,71.83
2023-05-21T20:23:03.936Z,71.99
2023-05-21T20:25:30.849Z,72.39
2023-05-21T20:28:01.178Z,72.59
2023-05-21T20:30:32.558Z,72.30
2023-05-21T20:33:01.831Z,72.45
2023-05-21T20:35:28.728Z,72.95
2023-05-21T20:37:56.814Z,73.25
2023-05-21T20:40:23.404Z,73.44
2023-05-21T20:42:51.812Z,73.68
2023-05-21T20:45:19.990Z,74.79
2023-05-21T20:47:47.851Z,75.14
2023-05-21T20:50:14.645Z,75.25
2023-05-21T20:52:41.701Z,75.25
2023-05-21T20:55:08.840Z,75.21
2023-05-21T20:57:35.314Z,75.19
2023-05-21T21:00:01.885Z,75.78
2023-05-21T21:02:28.624Z,76.14
2023-05-21T21:04:56.298Z,76.55
2023-05-21T21:07:22.755Z,76.92
2023-05-21T21:09:49.438Z,76.97
2023-05-21T21:12:26.204Z,77.20
2023-05-21T21:14:54.075Z,77.76
2023-05-21T21:17:21.023Z,78.59
2023-05-21T21:19:47.538Z,78.54
2023-05-21T21:22:15.036Z,78.58
2023-05-21T21:24:41.665Z,78.92
2023-05-21T21:27:08.335Z,79.62
2023-05-21T21:29:34.974Z,79.94
2023-05-21T21:32:10.598Z,80.32
2023-05-21T21:34:37.191Z,80.59
2023-05-21T21:37:04.233Z,81.08
2023-05-21T21:39:30.653Z,81.51
2023-05-21T21:41:57.140Z,81.52
2023-05-21T21:44:23.673Z,81.77
2023-05-21T21:46:50.430Z,82.34
2023-05-21T21:49:17.623Z,82.69
2023-05-21T21:51:44.786Z,83.29
2023-05-21T21:54:11.670Z,83.41
2023-05-21T21:56:38.345Z,83.95
2023-05-21T21:59:04.896Z,84.16
2023-05-21T22:01:31.467Z,85.17
2023-05-21T22:03:58.051Z,85.51
2023-05-21T22:06:24.666Z,85.96
2023-05-21T22:08:51.578Z,85.92
2023-05-21T22:11:18.046Z,85.80
2023-05-21T22:13:48.909Z,85.75
2023-05-21T22:16:15.542Z,85.92
2023-05-21T22:18:42.152Z,85.96
2023-05-21T22:21:10.703Z,86.47
2023-05-21T22:23:38.287Z,86.52
2023-05-21T22:26:05.164Z,86.34
2023-05-21T22:28:31.609Z,86.98
2023-05-21T22:30:58.641Z,86.83
2023-05-21T22:33:25.295Z,87.05
2023-05-21T22:35:52.102Z,87.24
2023-05-21T22:38:18.528Z,87.68
2023-05-21T22:40:45.201Z,88.23
2023-05-21T22:43:12.002Z,88.07
2023-05-21T22:45:38.544Z,88.03
2023-05-21T22:48:07.363Z,88.09
2023-05-21T22:50:34.145Z,88.11
2023-05-21T22:53:03.981Z,88.05
2023-05-21T22:55:30.507Z,87.84
2023-05-21T22:57:58.380Z,87.95
2023-05-21T23:00:26.128Z,88.20
2023-05-21T23:02:54.304Z,88.47
2023-05-21T23:05:21.343Z,88.20
2023-05-21T23:07:47.816Z,88.48
2023-05-21T23:10:14.385Z,88.31
2023-05-21T23:12:41.242Z,88.55
2023-05-21T23:15:09.893Z,88.43
2023-05-21T23:17:36.912Z,88.35
2023-05-21T23:20:03.737Z,88.88
2023-05-21T23:22:30.321Z,89.27
2023-05-21T23:24:56.728Z,89.07
2023-05-21T23:27:23.176Z,88.87
2023-05-21T23:29:49.668Z,89.49
2023-05-21T23:32:16.323Z,89.56
2023-05-21T23:34:42.938Z,89.72
2023-05-21T23:37:09.457Z,89.07
2023-05-21T23:39:36.691Z,89.34
2023-05-21T23:42:04.608Z,89.42
2023-05-21T23:44:34.087Z,89.44
2023-05-21T23:47:00.651Z,88.86
2023-05-21T23:49:27.072Z,89.32
2023-05-21T23:51:53.899Z,89.34
2023-05-21T23:54:20.496Z,89.51
2023-05-21T23:56:46.916Z,89.31
2023-05-21T23:59:13.714Z,89.16
